Time;durP1;ratioP1;P1;durP2;ratioP2;P2;SDS_P1;SDS_P2;PMS_P1;PMS_P2;Temp;Humidity;BMP_temperature;BMP_pressure;BME280_temperature;BME280_humidity;BME280_pressure;Samples;Min_cycle;Max_cycle;Signal;HPM_P1;HPM_P2
2023/03/30 00:00:59;;;;;;;4.33;3.40;;;;;;;;;;5005039;28;20170;-57
2023/03/30 00:03:26;;;;;;;3.53;2.30;;;;;;;;;;5003242;28;20178;-57
2023/03/30 00:05:55;;;;;;;4.07;3.30;;;;;;;;;;5008031;28;20182;-57
2023/03/30 00:08:27;;;;;;;3.43;2.67;;;;;;;;;;5008100;28;20644;-57
2023/03/30 00:10:54;;;;;;;4.13;3.47;;;;;;;;;;5007813;28;20308;-57
2023/03/30 00:13:20;;;;;;;5.57;3.23;;;;;;;;;;5000300;28;20197;-57
2023/03/30 00:15:46;;;;;;;5.33;3.23;;;;;;;;;;5008098;28;20554;-57
2023/03/30 00:18:13;;;;;;;3.97;3.40;;;;;;;;;;5003899;28;20179;-57
2023/03/30 00:20:41;;;;;;;3.20;2.90;;;;;;;;;;5007611;28;20316;-57
2023/03/30 00:23:07;;;;;;;3.77;3.00;;;;;;;;;;5002256;28;20737;-57
2023/03/30 00:25:33;;;;;;;3.47;2.80;;;;;;;;;;5005255;28;20182;-58
2023/03/30 00:27:59;;;;;;;4.50;2.90;;;;;;;;;;5007926;28;20589;-57
2023/03/30 00:30:26;;;;;;;4.73;3.20;;;;;;;;;;5007215;28;20585;-57
2023/03/30 00:32:52;;;;;;;3.40;3.10;;;;;;;;;;5006610;28;20630;-57
2023/03/30 00:35:19;;;;;;;3.77;3.30;;;;;;;;;;5008009;28;20178;-57
2023/03/30 00:37:48;;;;;;;6.00;3.07;;;;;;;;;;5007701;28;20186;-57
2023/03/30 00:40:15;;;;;;;3.23;2.70;;;;;;;;;;5006624;28;20590;-57
2023/03/30 00:42:41;;;;;;;4.93;2.90;;;;;;;;;;5005005;28;20182;-57
2023/03/30 00:45:19;;;;;;;3.30;3.00;;;;;;;;;;5012371;28;20191;-57
2023/03/30 00:47:49;;;;;;;3.13;2.63;;;;;;;;;;4999789;28;20198;-57
2023/03/30 00:50:16;;;;;;;3.80;3.10;;;;;;;;;;5007433;28;20183;-57
2023/03/30 00:52:42;;;;;;;2.80;2.60;;;;;;;;;;5006067;28;20183;-57
2023/03/30 00:55:09;;;;;;;4.67;3.10;;;;;;;;;;5002602;28;20171;-57
2023/03/30 00:57:36;;;;;;;4.20;2.87;;;;;;;;;;5007590;28;20578;-57
2023/03/30 01:00:06;;;;;;;2.97;2.60;;;;;;;;;;5008107;28;20186;-57
2023/03/30 01:02:33;;;;;;;3.40;2.67;;;;;;;;;;5006672;28;20186;-57
2023/03/30 01:04:59;;;;;;;5.00;3.40;;;;;;;;;;5006778;28;20186;-57
2023/03/30 01:07:26;;;;;;;4.10;3.73;;;;;;;;;;4999011;28;20281;-57
2023/03/30 01:09:52;;;;;;;3.63;2.87;;;;;;;;;;4996485;28;20174;-57
2023/03/30 01:12:19;;;;;;;3.07;2.77;;;;;;;;;;5006914;28;20529;-57
2023/03/30 01:14:46;;;;;;;3.20;2.90;;;;;;;;;;5006676;28;20181;-57
2023/03/30 01:17:16;;;;;;;3.33;2.80;;;;;;;;;;5005221;28;20685;-57
2023/03/30 01:19:47;;;;;;;3.80;2.90;;;;;;;;;;5007600;28;20206;-56
2023/03/30 01:22:23;;;;;;;6.43;3.10;;;;;;;;;;5001057;28;20238;-55
2023/03/30 01:24:52;;;;;;;3.63;2.60;;;;;;;;;;5010534;28;20224;-57
2023/03/30 01:27:28;;;;;;;6.57;3.30;;;;;;;;;;5008292;28;20325;-57
2023/03/30 01:30:01;;;;;;;3.90;2.70;;;;;;;;;;5009630;28;20183;-57
2023/03/30 01:32:41;;;;;;;2.70;2.50;;;;;;;;;;5005227;28;20185;-57
2023/03/30 01:35:07;;;;;;;5.70;2.87;;;;;;;;;;5013760;28;20182;-57
2023/03/30 01:37:45;;;;;;;3.60;2.57;;;;;;;;;;5008300;28;20240;-57
2023/03/30 01:40:14;;;;;;;2.63;2.43;;;;;;;;;;5009147;28;20186;-57
2023/03/30 01:42:52;;;;;;;4.53;3.00;;;;;;;;;;5008481;28;20171;-56
2023/03/30 01:45:31;;;;;;;4.87;2.93;;;;;;;;;;5009183;28;20187;-57
2023/03/30 01:48:00;;;;;;;3.23;2.83;;;;;;;;;;5004956;28;20686;-57
2023/03/30 01:50:30;;;;;;;3.23;2.73;;;;;;;;;;5011004;28;20786;-56
2023/03/30 01:53:02;;;;;;;3.97;3.67;;;;;;;;;;5009062;28;20178;-57
2023/03/30 01:55:32;;;;;;;5.73;3.00;;;;;;;;;;5009721;28;20179;-57
2023/03/30 01:58:05;;;;;;;6.47;3.80;;;;;;;;;;5011478;28;20663;-57
2023/03/30 02:00:33;;;;;;;3.40;2.73;;;;;;;;;;5008629;28;20178;-57
2023/03/30 02:03:05;;;;;;;5.83;2.77;;;;;;;;;;5008441;28;20187;-57
2023/03/30 02:05:32;;;;;;;3.67;2.77;;;;;;;;;;5008995;28;20205;-57
2023/03/30 02:08:05;;;;;;;3.10;2.67;;;;;;;;;;5009856;28;20294;-57
2023/03/30 02:10:32;;;;;;;9.10;3.23;;;;;;;;;;5009026;28;20186;-57
2023/03/30 02:12:59;;;;;;;4.57;2.60;;;;;;;;;;5010914;28;20206;-57
2023/03/30 02:15:28;;;;;;;3.77;3.00;;;;;;;;;;5009818;28;20178;-57
2023/03/30 02:17:54;;;;;;;3.97;2.90;;;;;;;;;;5011375;28;20275;-56
2023/03/30 02:20:20;;;;;;;6.53;4.50;;;;;;;;;;5010179;28;20728;-56
2023/03/30 02:22:46;;;;;;;5.03;2.93;;;;;;;;;;5008748;28;20205;-57
2023/03/30 02:25:13;;;;;;;4.13;2.60;;;;;;;;;;5008907;28;20826;-57
2023/03/30 02:27:40;;;;;;;3.43;2.37;;;;;;;;;;5011109;28;20195;-57
2023/03/30 02:30:07;;;;;;;4.17;2.90;;;;;;;;;;5006515;28;20172;-56
2023/03/30 02:32:39;;;;;;;3.37;2.77;;;;;;;;;;5008999;28;20182;-57
2023/03/30 02:35:14;;;;;;;3.30;2.77;;;;;;;;;;5010444;28;20189;-57
2023/03/30 02:37:49;;;;;;;6.40;2.90;;;;;;;;;;5008836;28;20209;-57
2023/03/30 02:40:18;;;;;;;4.83;2.60;;;;;;;;;;5007810;28;20653;-57
2023/03/30 02:43:02;;;;;;;3.77;2.70;;;;;;;;;;5008869;28;20186;-57
2023/03/30 02:45:50;;;;;;;3.87;3.20;;;;;;;;;;5009035;28;20304;-57
2023/03/30 02:48:35;;;;;;;3.93;3.00;;;;;;;;;;5007641;28;20322;-57
2023/03/30 02:51:16;;;;;;;3.47;2.50;;;;;;;;;;5012913;28;20204;-56
2023/03/30 02:53:44;;;;;;;4.13;2.40;;;;;;;;;;5000312;28;20182;-57
2023/03/30 02:56:14;;;;;;;5.10;3.00;;;;;;;;;;5007790;28;20614;-57
2023/03/30 02:58:45;;;;;;;3.67;3.00;;;;;;;;;;5007154;28;20597;-57
2023/03/30 03:01:18;;;;;;;5.83;5.37;;;;;;;;;;5010086;28;20193;-57
2023/03/30 03:03:46;;;;;;;3.30;2.60;;;;;;;;;;5008693;28;20643;-57
2023/03/30 03:06:13;;;;;;;2.90;2.60;;;;;;;;;;5009546;28;20182;-57
2023/03/30 03:08:40;;;;;;;3.03;2.40;;;;;;;;;;5006957;28;20242;-57
2023/03/30 03:11:07;;;;;;;6.87;3.27;;;;;;;;;;5008610;28;20207;-57
2023/03/30 03:13:35;;;;;;;4.83;3.03;;;;;;;;;;5009374;28;20644;-57
2023/03/30 03:16:01;;;;;;;4.47;3.30;;;;;;;;;;5006543;28;20689;-57
2023/03/30 03:18:27;;;;;;;3.73;2.97;;;;;;;;;;5010215;28;20176;-56
2023/03/30 03:20:53;;;;;;;4.47;2.77;;;;;;;;;;5008459;28;20340;-56
2023/03/30 03:23:19;;;;;;;5.17;3.27;;;;;;;;;;5007989;28;20170;-55
2023/03/30 03:25:47;;;;;;;4.30;2.83;;;;;;;;;;5008164;28;20270;-56
2023/03/30 03:28:13;;;;;;;4.13;2.43;;;;;;;;;;5008020;28;20623;-56
2023/03/30 03:30:39;;;;;;;2.50;2.30;;;;;;;;;;5009175;28;20189;-57
2023/03/30 03:33:05;;;;;;;4.97;2.83;;;;;;;;;;5006956;28;20181;-56
2023/03/30 03:35:31;;;;;;;2.93;2.60;;;;;;;;;;5003192;28;20182;-56
2023/03/30 03:37:57;;;;;;;2.77;2.20;;;;;;;;;;5006698;28;20583;-56
2023/03/30 03:40:23;;;;;;;5.80;4.20;;;;;;;;;;5007293;28;20183;-56
2023/03/30 03:42:49;;;;;;;7.73;2.60;;;;;;;;;;5006135;28;20184;-56
2023/03/30 03:45:15;;;;;;;3.93;2.57;;;;;;;;;;5008658;28;20183;-57
2023/03/30 03:47:41;;;;;;;5.20;2.50;;;;;;;;;;5006839;28;20209;-56
2023/03/30 03:50:08;;;;;;;3.93;3.00;;;;;;;;;;5007760;28;20185;-56
2023/03/30 03:52:35;;;;;;;2.83;2.33;;;;;;;;;;5004502;28;20715;-56
2023/03/30 03:55:02;;;;;;;2.83;2.07;;;;;;;;;;5005999;28;20257;-57
2023/03/30 03:57:28;;;;;;;3.83;2.57;;;;;;;;;;5006729;28;20187;-56
2023/03/30 03:59:56;;;;;;;4.83;2.70;;;;;;;;;;5009571;28;20194;-56
2023/03/30 04:02:22;;;;;;;4.57;4.07;;;;;;;;;;5007198;28;20179;-56
2023/03/30 04:04:50;;;;;;;3.37;2.30;;;;;;;;;;5007802;28;20182;-56
2023/03/30 04:07:16;;;;;;;4.87;4.47;;;;;;;;;;5006828;28;20210;-56
2023/03/30 04:09:42;;;;;;;3.67;2.17;;;;;;;;;;5004411;28;20178;-56
2023/03/30 04:12:08;;;;;;;3.00;2.07;;;;;;;;;;5002508;28;20208;-56
2023/03/30 04:14:34;;;;;;;4.43;2.37;;;;;;;;;;5012015;28;20413;-56
2023/03/30 04:17:00;;;;;;;4.10;2.17;;;;;;;;;;5006830;28;20179;-56
2023/03/30 04:19:30;;;;;;;4.60;2.60;;;;;;;;;;5008915;28;20174;-56
2023/03/30 04:21:57;;;;;;;2.47;2.20;;;;;;;;;;5006275;28;20272;-56
2023/03/30 04:24:24;;;;;;;3.47;2.70;;;;;;;;;;5005613;28;20643;-55
2023/03/30 04:26:50;;;;;;;3.00;2.20;;;;;;;;;;5007608;28;20214;-56
2023/03/30 04:29:19;;;;;;;3.77;2.80;;;;;;;;;;5008334;28;20279;-56
2023/03/30 04:31:47;;;;;;;4.10;2.50;;;;;;;;;;5006702;28;20229;-56
2023/03/30 04:34:13;;;;;;;4.40;2.40;;;;;;;;;;5004153;28;20273;-56
2023/03/30 04:36:42;;;;;;;5.97;2.47;;;;;;;;;;5003997;28;20665;-56
2023/03/30 04:39:12;;;;;;;2.20;2.00;;;;;;;;;;5005640;28;20174;-56
2023/03/30 04:41:40;;;;;;;3.90;2.17;;;;;;;;;;5003071;28;20201;-56
2023/03/30 04:44:08;;;;;;;4.27;2.97;;;;;;;;;;5006164;28;20627;-57
2023/03/30 04:46:34;;;;;;;2.43;2.13;;;;;;;;;;5006967;28;20205;-57
2023/03/30 04:49:01;;;;;;;3.80;2.10;;;;;;;;;;5006581;28;20178;-56
2023/03/30 04:51:27;;;;;;;4.17;2.60;;;;;;;;;;5005899;28;20177;-57
2023/03/30 04:53:53;;;;;;;5.03;2.50;;;;;;;;;;5007475;28;20237;-57
2023/03/30 04:56:19;;;;;;;4.37;2.17;;;;;;;;;;5004446;28;20190;-57
2023/03/30 04:58:45;;;;;;;3.50;2.40;;;;;;;;;;4997802;28;20174;-57
2023/03/30 05:01:11;;;;;;;4.27;3.37;;;;;;;;;;5004688;28;20183;-56
2023/03/30 05:03:37;;;;;;;3.67;2.10;;;;;;;;;;5012231;28;20539;-57
2023/03/30 05:06:03;;;;;;;2.20;2.00;;;;;;;;;;5006317;28;20214;-57
2023/03/30 05:08:32;;;;;;;2.73;2.07;;;;;;;;;;5010649;28;20186;-56
2023/03/30 05:11:01;;;;;;;2.67;2.30;;;;;;;;;;5012987;28;20205;-57
2023/03/30 05:13:27;;;;;;;5.03;2.83;;;;;;;;;;5015978;28;20190;-55
2023/03/30 05:15:54;;;;;;;4.90;2.43;;;;;;;;;;5017156;28;20265;-56
2023/03/30 05:18:20;;;;;;;4.27;2.90;;;;;;;;;;5022012;28;20247;-56
2023/03/30 05:20:46;;;;;;;3.00;2.20;;;;;;;;;;5009634;28;20229;-57
2023/03/30 05:23:12;;;;;;;3.23;2.20;;;;;;;;;;5007187;28;20265;-56
2023/03/30 05:25:38;;;;;;;5.17;2.60;;;;;;;;;;5009094;28;20175;-56
2023/03/30 05:28:05;;;;;;;3.53;2.40;;;;;;;;;;5008142;28;20209;-57
2023/03/30 05:30:31;;;;;;;2.40;2.20;;;;;;;;;;5006399;28;20183;-57
2023/03/30 05:32:57;;;;;;;3.70;2.40;;;;;;;;;;5017164;28;20180;-56
2023/03/30 05:35:23;;;;;;;5.00;2.30;;;;;;;;;;5008863;28;20210;-55
2023/03/30 05:37:49;;;;;;;2.40;2.20;;;;;;;;;;4995160;28;20209;-56
2023/03/30 05:40:17;;;;;;;3.90;2.80;;;;;;;;;;5000480;28;20179;-55
2023/03/30 05:42:43;;;;;;;3.57;2.87;;;;;;;;;;5007072;28;20627;-57
2023/03/30 05:45:10;;;;;;;3.13;2.53;;;;;;;;;;5009561;28;20186;-56
2023/03/30 05:47:36;;;;;;;3.37;2.17;;;;;;;;;;5004939;28;20210;-57
2023/03/30 05:50:02;;;;;;;3.07;2.70;;;;;;;;;;5005006;28;20269;-57
2023/03/30 05:52:28;;;;;;;2.60;2.37;;;;;;;;;;5007669;28;20190;-56
2023/03/30 05:54:54;;;;;;;2.47;2.20;;;;;;;;;;5006096;28;20545;-57
2023/03/30 05:57:20;;;;;;;3.57;2.90;;;;;;;;;;5010382;28;20185;-57
2023/03/30 05:59:46;;;;;;;3.80;2.37;;;;;;;;;;5010845;28;20666;-55
2023/03/30 06:02:13;;;;;;;5.90;2.97;;;;;;;;;;5009145;28;20221;-57
2023/03/30 06:04:39;;;;;;;3.77;2.40;;;;;;;;;;5008645;28;20697;-57
2023/03/30 06:07:06;;;;;;;2.50;2.30;;;;;;;;;;5007331;28;20224;-57
2023/03/30 06:09:32;;;;;;;4.43;2.40;;;;;;;;;;5001590;28;20658;-57
2023/03/30 06:11:59;;;;;;;3.47;2.40;;;;;;;;;;5003644;28;20260;-56
2023/03/30 06:14:25;;;;;;;3.23;2.30;;;;;;;;;;5016994;28;20183;-57
2023/03/30 06:16:51;;;;;;;3.13;2.17;;;;;;;;;;5010656;28;20296;-57
2023/03/30 06:19:17;;;;;;;6.00;2.60;;;;;;;;;;5013617;28;20241;-57
2023/03/30 06:21:44;;;;;;;4.30;2.23;;;;;;;;;;5014908;28;20225;-57
2023/03/30 06:24:10;;;;;;;3.73;2.30;;;;;;;;;;5022547;28;20824;-57
2023/03/30 06:26:36;;;;;;;2.53;2.30;;;;;;;;;;5012233;28;20736;-57
2023/03/30 06:29:03;;;;;;;1.97;1.87;;;;;;;;;;5011629;28;20178;-57
2023/03/30 06:31:30;;;;;;;2.97;2.67;;;;;;;;;;5012472;28;20272;-57
2023/03/30 06:33:56;;;;;;;3.33;1.90;;;;;;;;;;5009239;28;20203;-57
2023/03/30 06:36:22;;;;;;;4.20;1.93;;;;;;;;;;5018895;28;20539;-57
2023/03/30 06:38:48;;;;;;;2.53;2.30;;;;;;;;;;5011975;28;20668;-57
2023/03/30 06:41:15;;;;;;;4.77;2.97;;;;;;;;;;5013971;28;20252;-59
2023/03/30 06:43:41;;;;;;;2.83;1.93;;;;;;;;;;5013830;28;20198;-57
2023/03/30 06:46:07;;;;;;;4.00;3.17;;;;;;;;;;5013272;28;20235;-57
2023/03/30 06:48:34;;;;;;;3.47;3.07;;;;;;;;;;5015253;28;20226;-58
2023/03/30 06:51:01;;;;;;;2.63;2.10;;;;;;;;;;5010048;28;20630;-57
2023/03/30 06:53:27;;;;;;;4.17;2.07;;;;;;;;;;5012590;28;20229;-56
2023/03/30 06:55:57;;;;;;;4.00;1.90;;;;;;;;;;5013397;28;20190;-56
2023/03/30 06:58:24;;;;;;;2.40;2.20;;;;;;;;;;5005449;28;20175;-57
2023/03/30 07:00:50;;;;;;;4.70;2.40;;;;;;;;;;5003341;28;20201;-57
2023/03/30 07:03:19;;;;;;;2.93;2.30;;;;;;;;;;5012311;28;20189;-57
2023/03/30 07:05:49;;;;;;;4.30;2.70;;;;;;;;;;5026927;28;20650;-57
2023/03/30 07:08:15;;;;;;;3.80;2.30;;;;;;;;;;5011107;28;20190;-57
2023/03/30 07:10:41;;;;;;;5.03;2.30;;;;;;;;;;5011406;28;20565;-57
2023/03/30 07:13:07;;;;;;;3.70;2.53;;;;;;;;;;5014916;28;20177;-57
2023/03/30 07:15:33;;;;;;;2.97;2.13;;;;;;;;;;5010763;28;20182;-56
2023/03/30 07:17:59;;;;;;;2.77;2.13;;;;;;;;;;5010500;28;20569;-56
2023/03/30 07:20:26;;;;;;;2.30;2.10;;;;;;;;;;5009749;28;20249;-56
2023/03/30 07:22:52;;;;;;;4.83;3.00;;;;;;;;;;5012258;28;20187;-57
2023/03/30 07:25:18;;;;;;;3.77;2.30;;;;;;;;;;5011544;28;20167;-56
2023/03/30 07:27:44;;;;;;;3.43;2.30;;;;;;;;;;5010112;28;20202;-56
2023/03/30 07:30:11;;;;;;;4.93;2.40;;;;;;;;;;5010950;28;20245;-56
2023/03/30 07:32:37;;;;;;;2.50;2.20;;;;;;;;;;5010007;28;20178;-57
2023/03/30 07:35:03;;;;;;;4.17;2.40;;;;;;;;;;5010301;28;20685;-57
2023/03/30 07:37:30;;;;;;;3.00;2.47;;;;;;;;;;5016479;28;20182;-56
2023/03/30 07:39:56;;;;;;;3.30;2.20;;;;;;;;;;5009519;28;20190;-57
2023/03/30 07:42:22;;;;;;;2.60;2.20;;;;;;;;;;5010378;28;20178;-55
2023/03/30 07:44:48;;;;;;;3.97;2.17;;;;;;;;;;5010133;28;20186;-55
2023/03/30 07:47:15;;;;;;;2.13;1.90;;;;;;;;;;5012989;28;20282;-56
2023/03/30 07:49:41;;;;;;;2.10;1.90;;;;;;;;;;5020638;28;20179;-56
2023/03/30 07:52:07;;;;;;;6.43;2.37;;;;;;;;;;5015075;28;20669;-56
2023/03/30 07:54:33;;;;;;;3.60;2.27;;;;;;;;;;5009674;28;20175;-56
2023/03/30 07:56:59;;;;;;;3.53;2.40;;;;;;;;;;5016703;28;20233;-56
2023/03/30 07:59:25;;;;;;;8.07;2.77;;;;;;;;;;5012856;28;20647;-57
2023/03/30 08:01:53;;;;;;;2.70;2.33;;;;;;;;;;5010918;28;20178;-57
2023/03/30 08:04:19;;;;;;;3.07;2.20;;;;;;;;;;5009068;28;20193;-57
2023/03/30 08:06:46;;;;;;;3.20;2.30;;;;;;;;;;5010820;28;20194;-57
2023/03/30 08:09:12;;;;;;;2.50;2.30;;;;;;;;;;5007578;28;20190;-57
2023/03/30 08:11:38;;;;;;;3.47;2.30;;;;;;;;;;5015784;28;20209;-57
2023/03/30 08:14:05;;;;;;;5.93;3.03;;;;;;;;;;5021929;28;20186;-57
2023/03/30 08:16:31;;;;;;;2.90;2.23;;;;;;;;;;5010024;28;20270;-57
2023/03/30 08:18:57;;;;;;;4.20;3.17;;;;;;;;;;5016321;28;20301;-57
2023/03/30 08:21:24;;;;;;;4.83;2.70;;;;;;;;;;5024054;28;20218;-57
2023/03/30 08:23:56;;;;;;;3.63;2.40;;;;;;;;;;5012933;28;20182;-56
2023/03/30 08:26:23;;;;;;;3.17;2.20;;;;;;;;;;5010051;28;20179;-57
2023/03/30 08:28:49;;;;;;;2.80;2.60;;;;;;;;;;5013820;28;20539;-57
2023/03/30 08:31:17;;;;;;;5.00;2.33;;;;;;;;;;5021942;28;20182;-57
2023/03/30 08:33:43;;;;;;;5.60;2.93;;;;;;;;;;5011988;28;20177;-56
2023/03/30 08:36:09;;;;;;;5.47;2.63;;;;;;;;;;5017957;28;20185;-56
2023/03/30 08:38:38;;;;;;;4.33;2.30;;;;;;;;;;5016452;28;20182;-56
2023/03/30 08:41:28;;;;;;;5.13;2.90;;;;;;;;;;5009033;28;20282;-55
2023/03/30 08:43:54;;;;;;;3.30;2.50;;;;;;;;;;5009831;28;20175;-56
2023/03/30 08:46:20;;;;;;;4.77;2.60;;;;;;;;;;5009706;28;20181;-56
2023/03/30 08:48:47;;;;;;;5.70;2.57;;;;;;;;;;5017078;28;20185;-55
2023/03/30 08:51:30;;;;;;;7.67;2.70;;;;;;;;;;5017882;28;20210;-55
2023/03/30 08:54:00;;;;;;;3.97;2.50;;;;;;;;;;5008302;28;20213;-55
2023/03/30 08:56:28;;;;;;;4.87;3.00;;;;;;;;;;5009326;28;20646;-56
2023/03/30 08:59:12;;;;;;;4.10;2.60;;;;;;;;;;5008880;28;20190;-56
2023/03/30 09:01:44;;;;;;;5.57;2.67;;;;;;;;;;5008222;28;20722;-56
2023/03/30 09:04:15;;;;;;;4.47;2.27;;;;;;;;;;5011344;28;20201;-55
2023/03/30 09:06:53;;;;;;;3.00;2.20;;;;;;;;;;5012948;28;20601;-55
2023/03/30 09:09:20;;;;;;;3.87;2.57;;;;;;;;;;5007733;28;20174;-55
2023/03/30 09:11:52;;;;;;;3.90;2.60;;;;;;;;;;5011844;28;20561;-55
2023/03/30 09:14:24;;;;;;;4.23;2.80;;;;;;;;;;5025328;28;20638;-56
2023/03/30 09:16:58;;;;;;;3.97;2.80;;;;;;;;;;5003411;28;20184;-55
2023/03/30 09:19:27;;;;;;;7.30;2.50;;;;;;;;;;5010049;28;20544;-56
2023/03/30 09:21:54;;;;;;;4.53;3.23;;;;;;;;;;5014084;28;20230;-55
2023/03/30 09:24:24;;;;;;;3.43;2.57;;;;;;;;;;5019240;28;20186;-55
2023/03/30 09:26:59;;;;;;;5.80;2.47;;;;;;;;;;5009673;28;20715;-56
2023/03/30 09:29:28;;;;;;;4.90;2.67;;;;;;;;;;5017452;28;20173;-55
2023/03/30 09:32:14;;;;;;;6.30;2.83;;;;;;;;;;5011955;28;20642;-55
2023/03/30 09:34:49;;;;;;;3.73;2.80;;;;;;;;;;5021078;28;20182;-55
2023/03/30 09:37:17;;;;;;;5.60;2.73;;;;;;;;;;5017518;28;20193;-55
2023/03/30 09:39:44;;;;;;;6.97;2.90;;;;;;;;;;5010120;28;20266;-55
2023/03/30 09:42:20;;;;;;;7.57;3.07;;;;;;;;;;5007540;28;20705;-55
2023/03/30 09:44:47;;;;;;;6.33;3.03;;;;;;;;;;5009973;28;20189;-56
2023/03/30 09:47:24;;;;;;;5.03;3.17;;;;;;;;;;5009196;28;20292;-55
2023/03/30 09:49:57;;;;;;;4.90;3.00;;;;;;;;;;5003695;28;20708;-55
2023/03/30 09:52:24;;;;;;;3.83;2.30;;;;;;;;;;5009247;28;20220;-55
2023/03/30 09:54:50;;;;;;;4.90;3.07;;;;;;;;;;5009426;28;20665;-56
2023/03/30 09:57:28;;;;;;;4.87;2.43;;;;;;;;;;5010841;28;20635;-55
2023/03/30 09:59:55;;;;;;;6.17;3.23;;;;;;;;;;5010093;28;20567;-55
2023/03/30 10:02:22;;;;;;;4.20;2.53;;;;;;;;;;5009442;28;20187;-55
2023/03/30 10:04:55;;;;;;;4.50;2.67;;;;;;;;;;5005703;28;20186;-56
2023/03/30 10:07:39;;;;;;;5.50;2.60;;;;;;;;;;5007994;28;20225;-55
2023/03/30 10:10:15;;;;;;;5.23;2.77;;;;;;;;;;5009468;28;20182;-55
2023/03/30 10:12:41;;;;;;;6.83;3.10;;;;;;;;;;5016222;28;20206;-55
2023/03/30 10:15:14;;;;;;;9.93;3.17;;;;;;;;;;5012269;28;20183;-55
2023/03/30 10:17:40;;;;;;;5.83;2.40;;;;;;;;;;5008940;28;20213;-55
2023/03/30 10:20:15;;;;;;;5.80;2.50;;;;;;;;;;5014899;28;20273;-55
2023/03/30 10:22:53;;;;;;;5.80;3.10;;;;;;;;;;5010720;28;20276;-55
2023/03/30 10:25:22;;;;;;;5.13;2.50;;;;;;;;;;5009596;28;20646;-55
2023/03/30 10:27:49;;;;;;;8.20;3.03;;;;;;;;;;5007696;28;20264;-55
2023/03/30 10:30:18;;;;;;;8.90;4.57;;;;;;;;;;5006965;28;20294;-55
2023/03/30 10:32:45;;;;;;;8.63;2.97;;;;;;;;;;5010448;28;20203;-55
2023/03/30 10:35:17;;;;;;;6.23;2.77;;;;;;;;;;5005997;28;20188;-55
2023/03/30 10:37:45;;;;;;;7.00;3.10;;;;;;;;;;5010055;28;20179;-55
2023/03/30 10:40:36;;;;;;;5.53;2.87;;;;;;;;;;5008536;28;20648;-55
2023/03/30 10:43:02;;;;;;;6.50;2.80;;;;;;;;;;4999678;28;20725;-55
2023/03/30 10:45:28;;;;;;;6.30;3.07;;;;;;;;;;5013013;28;20225;-55
2023/03/30 10:48:03;;;;;;;4.27;2.50;;;;;;;;;;5008915;28;20217;-55
2023/03/30 10:50:30;;;;;;;7.37;2.60;;;;;;;;;;5007421;28;20188;-55
2023/03/30 10:53:35;;;;;;;9.23;2.87;;;;;;;;;;5008059;28;20187;-55
2023/03/30 10:56:03;;;;;;;6.33;2.47;;;;;;;;;;5005004;28;20178;-55
2023/03/30 10:58:45;;;;;;;6.83;3.40;;;;;;;;;;5001493;28;20206;-54
2023/03/30 11:01:11;;;;;;;6.93;3.10;;;;;;;;;;5008451;28;20209;-55
2023/03/30 11:03:39;;;;;;;4.43;2.80;;;;;;;;;;5006065;28;20195;-54
2023/03/30 11:06:05;;;;;;;4.23;2.30;;;;;;;;;;5010866;28;20277;-54
2023/03/30 11:08:40;;;;;;;3.40;2.40;;;;;;;;;;5010703;28;20251;-54
2023/03/30 11:11:09;;;;;;;5.93;2.60;;;;;;;;;;5011441;28;20222;-55
2023/03/30 11:13:40;;;;;;;4.70;2.67;;;;;;;;;;5005813;28;20180;-54
2023/03/30 11:16:07;;;;;;;6.80;2.90;;;;;;;;;;5008760;28;20638;-54
2023/03/30 11:18:52;;;;;;;4.60;2.90;;;;;;;;;;5015262;28;20179;-54
2023/03/30 11:21:32;;;;;;;6.00;2.90;;;;;;;;;;5006488;28;20320;-54
2023/03/30 11:24:00;;;;;;;7.40;3.50;;;;;;;;;;5010520;28;20201;-54
2023/03/30 11:26:32;;;;;;;5.23;3.00;;;;;;;;;;5011409;28;20172;-54
2023/03/30 11:29:02;;;;;;;5.27;3.00;;;;;;;;;;5011192;28;20185;-54
2023/03/30 11:31:47;;;;;;;5.07;3.20;;;;;;;;;;5010471;28;20706;-54
2023/03/30 11:34:20;;;;;;;6.40;3.00;;;;;;;;;;5021093;28;20683;-54
2023/03/30 11:36:59;;;;;;;4.13;2.50;;;;;;;;;;5009963;28;20184;-54
2023/03/30 11:39:30;;;;;;;6.20;2.93;;;;;;;;;;5007243;28;20567;-55
2023/03/30 11:41:59;;;;;;;4.67;2.93;;;;;;;;;;5009694;28;20197;-54
2023/03/30 11:44:26;;;;;;;4.57;2.80;;;;;;;;;;5003458;28;20169;-54
2023/03/30 11:46:52;;;;;;;6.67;3.50;;;;;;;;;;5010063;28;20204;-54
2023/03/30 11:49:30;;;;;;;5.03;3.43;;;;;;;;;;5010125;28;20190;-54
2023/03/30 11:52:16;;;;;;;7.37;3.57;;;;;;;;;;5008182;28;20178;-55
2023/03/30 11:54:47;;;;;;;7.33;3.13;;;;;;;;;;5008571;28;20215;-54
2023/03/30 11:57:13;;;;;;;6.17;3.93;;;;;;;;;;5007133;28;20171;-54
2023/03/30 12:00:00;;;;;;;8.90;5.70;;;;;;;;;;5012131;28;20195;-54
2023/03/30 12:02:33;;;;;;;4.53;2.90;;;;;;;;;;5012286;28;20604;-54
2023/03/30 12:05:05;;;;;;;5.47;3.00;;;;;;;;;;5003747;28;20202;-54
2023/03/30 12:07:31;;;;;;;5.13;3.20;;;;;;;;;;5006425;28;20793;-54
2023/03/30 12:10:01;;;;;;;5.20;2.73;;;;;;;;;;5011171;28;20203;-53
2023/03/30 12:12:33;;;;;;;4.80;2.87;;;;;;;;;;5010440;28;20796;-54
2023/03/30 12:15:25;;;;;;;5.23;2.73;;;;;;;;;;5008646;28;20778;-53
2023/03/30 12:18:03;;;;;;;5.00;2.90;;;;;;;;;;4995474;28;20200;-54
2023/03/30 12:20:50;;;;;;;5.97;2.80;;;;;;;;;;5006482;28;20220;-54
2023/03/30 12:23:32;;;;;;;4.53;3.43;;;;;;;;;;5009576;28;20633;-53
2023/03/30 12:26:09;;;;;;;6.33;3.17;;;;;;;;;;5001952;28;20891;-54
2023/03/30 12:28:48;;;;;;;4.73;2.57;;;;;;;;;;5007513;28;20205;-56
2023/03/30 12:31:15;;;;;;;5.00;2.60;;;;;;;;;;5007576;28;20658;-54
2023/03/30 12:33:49;;;;;;;6.03;2.70;;;;;;;;;;5005099;28;20182;-54
2023/03/30 12:36:24;;;;;;;7.20;2.70;;;;;;;;;;5002918;28;20181;-54
2023/03/30 12:38:51;;;;;;;5.43;2.40;;;;;;;;;;5005695;28;20270;-54
2023/03/30 12:41:19;;;;;;;5.27;2.60;;;;;;;;;;5005224;28;20322;-54
2023/03/30 12:44:00;;;;;;;6.33;2.30;;;;;;;;;;4998800;28;20207;-54
2023/03/30 12:46:48;;;;;;;7.63;2.70;;;;;;;;;;5001697;28;20196;-54
2023/03/30 12:52:37;;;;;;;2.90;2.30;;;;;;;;;;4996266;28;20236;-56
2023/03/30 12:55:17;;;;;;;7.73;2.60;;;;;;;;;;5004899;28;20191;-56
2023/03/30 12:57:51;;;;;;;4.93;2.40;;;;;;;;;;5002698;28;20178;-52
2023/03/30 13:00:35;;;;;;;5.70;2.63;;;;;;;;;;5008666;28;20183;-53
2023/03/30 13:03:24;;;;;;;4.70;2.40;;;;;;;;;;5008521;28;20183;-52
2023/03/30 13:05:52;;;;;;;5.27;2.60;;;;;;;;;;5013277;28;20171;-53
2023/03/30 13:08:28;;;;;;;4.43;2.17;;;;;;;;;;4988930;28;20279;-53
2023/03/30 13:11:06;;;;;;;8.10;3.27;;;;;;;;;;5005754;28;20230;-53
2023/03/30 13:13:44;;;;;;;3.50;2.40;;;;;;;;;;5008118;28;20171;-54
2023/03/30 13:16:10;;;;;;;8.33;2.67;;;;;;;;;;5008103;28;20182;-53
2023/03/30 13:18:51;;;;;;;2.53;2.27;;;;;;;;;;5010628;28;20193;-54
2023/03/30 13:21:19;;;;;;;5.13;2.90;;;;;;;;;;5012382;28;20235;-54
2023/03/30 13:23:57;;;;;;;4.00;2.47;;;;;;;;;;5012370;28;20231;-54
2023/03/30 13:26:25;;;;;;;4.43;2.80;;;;;;;;;;5012364;28;20194;-54
2023/03/30 13:29:14;;;;;;;4.97;3.13;;;;;;;;;;5011939;28;20237;-54
2023/03/30 13:32:00;;;;;;;2.97;2.30;;;;;;;;;;5012838;28;20523;-54
2023/03/30 13:34:29;;;;;;;6.47;2.87;;;;;;;;;;5011625;28;20784;-54
2023/03/30 13:37:14;;;;;;;5.33;2.93;;;;;;;;;;5013008;28;20183;-54
2023/03/30 13:39:46;;;;;;;4.90;2.07;;;;;;;;;;5012723;28;20174;-54
2023/03/30 13:42:18;;;;;;;6.27;3.17;;;;;;;;;;5008825;28;20805;-54
2023/03/30 13:44:48;;;;;;;7.93;2.93;;;;;;;;;;5011221;28;20192;-54
2023/03/30 13:47:14;;;;;;;6.37;2.70;;;;;;;;;;5010971;28;20203;-54
2023/03/30 13:49:47;;;;;;;10.30;3.07;;;;;;;;;;5012002;28;20175;-54
2023/03/30 13:52:19;;;;;;;6.37;2.53;;;;;;;;;;5011914;28;20209;-54
2023/03/30 13:54:45;;;;;;;7.13;2.57;;;;;;;;;;5005824;28;20184;-54
2023/03/30 13:57:11;;;;;;;3.43;2.40;;;;;;;;;;5013028;28;20198;-54
2023/03/30 13:59:41;;;;;;;4.47;3.77;;;;;;;;;;5012848;28;20173;-54
2023/03/30 14:02:07;;;;;;;4.60;3.20;;;;;;;;;;5015318;28;20223;-54
2023/03/30 14:04:37;;;;;;;6.40;2.57;;;;;;;;;;5008072;28;20220;-54
2023/03/30 14:07:05;;;;;;;4.70;2.30;;;;;;;;;;5016908;28;20211;-54
2023/03/30 14:09:31;;;;;;;3.47;2.50;;;;;;;;;;5011967;28;20680;-54
2023/03/30 14:11:59;;;;;;;5.17;2.00;;;;;;;;;;5011837;28;20191;-54
2023/03/30 14:14:28;;;;;;;7.57;2.60;;;;;;;;;;5006012;28;20193;-54
2023/03/30 14:16:59;;;;;;;4.23;2.60;;;;;;;;;;5005895;28;20524;-54
2023/03/30 14:19:26;;;;;;;6.00;2.63;;;;;;;;;;5007815;28;20186;-54
2023/03/30 14:21:58;;;;;;;3.13;2.30;;;;;;;;;;5009476;28;20234;-54
2023/03/30 14:24:29;;;;;;;6.70;3.27;;;;;;;;;;5005363;28;20235;-54
2023/03/30 14:27:00;;;;;;;4.70;2.30;;;;;;;;;;5006995;28;21681;-54
2023/03/30 14:29:29;;;;;;;6.47;2.40;;;;;;;;;;5010750;28;20817;-54
2023/03/30 14:31:56;;;;;;;4.97;2.33;;;;;;;;;;5012980;28;20182;-54
2023/03/30 14:34:27;;;;;;;4.90;3.00;;;;;;;;;;5010138;28;20644;-54
2023/03/30 14:36:54;;;;;;;7.23;2.60;;;;;;;;;;5012359;28;20175;-54
2023/03/30 14:39:22;;;;;;;5.13;3.20;;;;;;;;;;5010228;28;20200;-54
2023/03/30 14:41:49;;;;;;;4.83;2.57;;;;;;;;;;5013539;28;20688;-54
2023/03/30 14:44:16;;;;;;;7.70;2.70;;;;;;;;;;5020629;28;20649;-54
2023/03/30 14:46:42;;;;;;;5.37;3.00;;;;;;;;;;5011458;28;20195;-54
2023/03/30 14:49:18;;;;;;;4.83;2.47;;;;;;;;;;4999677;28;20315;-54
2023/03/30 14:51:46;;;;;;;4.40;2.23;;;;;;;;;;5003584;28;20178;-54
2023/03/30 14:54:20;;;;;;;6.17;2.73;;;;;;;;;;5006961;28;20218;-54
2023/03/30 14:56:51;;;;;;;3.70;2.40;;;;;;;;;;5006595;28;20180;-58
2023/03/30 14:59:17;;;;;;;5.53;2.50;;;;;;;;;;5010647;28;20587;-54
2023/03/30 15:01:44;;;;;;;5.70;2.93;;;;;;;;;;5010348;28;20217;-55